Time;durP1;ratioP1;P1;durP2;ratioP2;P2;SDS_P1;SDS_P2;PMS_P1;PMS_P2;Temp;Humidity;BMP_temperature;BMP_pressure;BME280_temperature;BME280_humidity;BME280_pressure;Samples;Min_cycle;Max_cycle;Signal;HPM_P1;HPM_P2
2022/07/04 00:00:51;;;;;;;5.93;4.18;;;12.10;1.00;;;;;;4953281;28;20063;-82
2022/07/04 00:03:17;;;;;;;5.00;4.03;;;12.10;1.00;;;;;;4943502;28;20395;-82
2022/07/04 00:05:42;;;;;;;5.88;4.30;;;12.10;99.90;;;;;;4958978;28;20042;-82
2022/07/04 00:08:08;;;;;;;4.97;4.03;;;12.10;1.00;;;;;;4942506;28;20146;-82
2022/07/04 00:10:34;;;;;;;6.57;4.97;;;12.10;1.00;;;;;;4958956;28;20046;-81
2022/07/04 00:13:00;;;;;;;6.70;4.15;;;12.00;1.00;;;;;;4942475;28;20039;-82
2022/07/04 00:15:25;;;;;;;6.25;5.20;;;12.00;1.00;;;;;;4956740;28;20110;-82
2022/07/04 00:17:51;;;;;;;6.90;5.00;;;12.00;1.00;;;;;;4943065;28;20043;-82
2022/07/04 00:20:18;;;;;;;5.03;4.28;;;12.00;1.00;;;;;;4942969;28;20041;-82
2022/07/04 00:22:44;;;;;;;5.07;4.05;;;12.00;1.00;;;;;;4941296;28;20798;-82
2022/07/04 00:25:10;;;;;;;7.57;4.57;;;11.90;1.00;;;;;;4965668;28;20514;-82
2022/07/04 00:27:36;;;;;;;7.43;4.35;;;11.90;1.00;;;;;;4940383;28;20043;-82
2022/07/04 00:30:04;;;;;;;11.23;4.90;;;11.90;1.00;;;;;;4942727;28;20045;-82
2022/07/04 00:32:29;;;;;;;7.20;4.72;;;11.90;1.00;;;;;;4946552;28;20240;-82
2022/07/04 00:34:55;;;;;;;7.60;5.55;;;11.90;1.00;;;;;;4942215;28;20061;-82
2022/07/04 00:37:21;;;;;;;9.00;5.40;;;11.90;40.70;;;;;;4958377;28;20043;-82
2022/07/04 00:39:46;;;;;;;7.65;5.78;;;12.00;60.40;;;;;;4940296;28;20189;-82
2022/07/04 00:42:13;;;;;;;7.68;6.07;;;12.10;99.90;;;;;;4939673;28;20322;-81
2022/07/04 00:44:39;;;;;;;9.98;6.47;;;12.20;99.90;;;;;;4940937;28;20122;-81
2022/07/04 00:47:06;;;;;;;8.32;6.18;;;12.10;99.90;;;;;;4940809;28;20034;-82
2022/07/04 00:49:32;;;;;;;7.43;6.13;;;12.20;99.90;;;;;;4942527;28;20046;-82
2022/07/04 00:51:59;;;;;;;12.95;6.18;;;12.10;99.90;;;;;;4958918;28;20110;-82
2022/07/04 00:54:28;;;;;;;8.35;6.18;;;12.00;99.90;;;;;;4942295;28;20078;-82
2022/07/04 00:56:55;;;;;;;8.93;6.85;;;12.00;80.60;;;;;;4940663;28;20100;-82
2022/07/04 00:59:22;;;;;;;9.55;6.57;;;11.90;82.60;;;;;;4940656;28;20476;-82
2022/07/04 01:01:48;;;;;;;8.60;6.60;;;11.90;61.90;;;;;;4958951;28;20049;-82
2022/07/04 01:04:14;;;;;;;7.18;6.35;;;11.90;96.90;;;;;;4941807;28;20443;-81
2022/07/04 01:06:40;;;;;;;9.13;6.53;;;11.90;96.90;;;;;;4942122;28;20046;-81
2022/07/04 01:09:06;;;;;;;7.28;5.82;;;11.90;99.90;;;;;;4941143;28;20070;-81
2022/07/04 01:11:31;;;;;;;8.10;5.97;;;11.80;71.80;;;;;;4940709;28;20129;-81
2022/07/04 01:13:58;;;;;;;8.75;6.63;;;11.80;48.40;;;;;;4942595;28;20051;-81
2022/07/04 01:16:28;;;;;;;8.43;6.63;;;11.70;27.00;;;;;;4956744;28;20044;-81
2022/07/04 01:18:54;;;;;;;8.10;6.07;;;11.70;40.80;;;;;;4941527;28;20524;-81
2022/07/04 01:21:21;;;;;;;7.75;5.65;;;11.70;11.60;;;;;;4957941;28;20031;-81
2022/07/04 01:23:47;;;;;;;11.85;6.32;;;11.70;17.80;;;;;;4958534;28;20042;-81
2022/07/04 01:26:13;;;;;;;10.13;6.57;;;11.60;55.30;;;;;;4942815;28;20105;-81
2022/07/04 01:28:39;;;;;;;10.57;6.65;;;11.70;68.20;;;;;;4937820;28;20532;-81
2022/07/04 01:31:05;;;;;;;12.88;6.60;;;11.70;73.90;;;;;;4940337;28;20038;-81
2022/07/04 01:33:32;;;;;;;9.65;7.32;;;11.70;99.90;;;;;;4939470;28;20446;-81
2022/07/04 01:35:58;;;;;;;10.38;6.70;;;11.70;99.90;;;;;;4956691;28;20411;-82
2022/07/04 01:38:23;;;;;;;7.70;6.38;;;11.60;96.60;;;;;;4957964;28;20046;-82
2022/07/04 01:40:49;;;;;;;7.68;6.47;;;11.60;85.70;;;;;;4947354;28;20038;-81
2022/07/04 01:43:15;;;;;;;10.50;7.40;;;11.60;68.10;;;;;;4957858;28;20177;-81
2022/07/04 01:45:41;;;;;;;10.77;7.60;;;11.60;99.20;;;;;;4943061;28;20117;-81
2022/07/04 01:48:08;;;;;;;10.23;7.80;;;11.60;93.30;;;;;;4957209;28;20303;-81
2022/07/04 01:50:35;;;;;;;8.18;7.03;;;11.60;99.90;;;;;;4951578;28;20483;-81
2022/07/04 01:53:00;;;;;;;9.13;6.90;;;11.60;94.80;;;;;;4955942;28;20362;-81
2022/07/04 01:55:27;;;;;;;7.70;6.55;;;11.60;99.90;;;;;;4942072;28;20125;-81
2022/07/04 01:57:53;;;;;;;14.27;8.23;;;11.60;98.50;;;;;;4941792;28;20351;-82
2022/07/04 02:03:03;;;;;;;9.50;7.28;;;11.60;99.90;;;;;;4955715;28;20045;-81
2022/07/04 02:05:29;;;;;;;9.27;7.22;;;11.50;99.90;;;;;;4955196;28;20039;-81
2022/07/04 02:07:55;;;;;;;10.32;7.80;;;11.60;99.90;;;;;;4958342;28;20031;-81
2022/07/04 02:10:20;;;;;;;12.40;9.52;;;11.60;99.90;;;;;;4954833;28;20410;-82
2022/07/04 02:13:02;;;;;;;11.90;8.80;;;11.50;99.90;;;;;;4973258;28;20447;-81
2022/07/04 02:15:30;;;;;;;11.35;7.82;;;11.60;99.90;;;;;;4957221;28;20046;-81
2022/07/04 02:17:56;;;;;;;11.38;8.32;;;11.60;99.90;;;;;;4958739;28;20062;-81
2022/07/04 02:20:22;;;;;;;9.95;8.23;;;11.70;99.90;;;;;;4944467;28;20508;-81
2022/07/04 02:22:50;;;;;;;11.80;8.15;;;11.60;99.90;;;;;;4941171;28;20328;-82
2022/07/04 02:25:16;;;;;;;10.07;7.15;;;11.70;99.90;;;;;;4944931;28;20099;-81
2022/07/04 02:27:45;;;;;;;11.55;7.90;;;11.50;99.90;;;;;;4960847;28;20034;-81
2022/07/04 02:30:11;;;;;;;14.23;10.30;;;11.50;99.90;;;;;;4945071;28;20395;-81
2022/07/04 02:32:37;;;;;;;11.27;8.63;;;11.60;99.90;;;;;;4946110;28;20047;-81
2022/07/04 02:35:04;;;;;;;12.43;8.93;;;11.60;99.90;;;;;;4956980;28;20037;-81
2022/07/04 02:37:30;;;;;;;12.15;9.07;;;11.60;99.90;;;;;;4961600;28;20279;-81
2022/07/04 02:39:55;;;;;;;14.55;9.90;;;11.60;99.90;;;;;;4946340;28;20479;-81
2022/07/04 02:42:21;;;;;;;14.20;8.30;;;11.60;99.90;;;;;;4946209;28;20038;-81
2022/07/04 02:44:47;;;;;;;11.50;8.25;;;11.60;99.90;;;;;;4959384;28;20450;-81
2022/07/04 02:47:14;;;;;;;12.80;7.70;;;11.60;99.90;;;;;;4944337;28;20495;-81
2022/07/04 02:49:39;;;;;;;12.10;9.98;;;11.60;99.90;;;;;;4943736;28;20030;-81
2022/07/04 02:52:05;;;;;;;12.90;9.25;;;11.60;99.90;;;;;;4959086;28;20513;-81
2022/07/04 02:54:31;;;;;;;15.65;11.18;;;11.60;99.90;;;;;;4960365;28;20042;-82
2022/07/04 02:56:57;;;;;;;13.50;10.60;;;11.60;99.90;;;;;;4944432;28;20486;-81
2022/07/04 02:59:23;;;;;;;17.65;12.48;;;11.70;99.90;;;;;;4943720;28;20048;-81
2022/07/04 03:01:48;;;;;;;15.73;11.13;;;11.70;99.90;;;;;;4941040;28;20664;-82
2022/07/04 03:04:14;;;;;;;15.63;10.80;;;11.70;99.90;;;;;;4958471;28;20049;-81
2022/07/04 03:06:40;;;;;;;14.88;11.27;;;11.70;99.90;;;;;;4961440;28;20398;-81
2022/07/04 03:09:06;;;;;;;17.48;12.20;;;11.70;99.90;;;;;;4961214;28;20074;-82
2022/07/04 03:11:32;;;;;;;17.23;12.20;;;11.80;99.90;;;;;;4942700;28;20101;-81
2022/07/04 03:13:58;;;;;;;20.85;12.15;;;11.80;99.90;;;;;;4975951;28;20035;-82
2022/07/04 03:16:27;;;;;;;17.15;11.77;;;11.80;99.90;;;;;;4943667;28;20030;-81
2022/07/04 03:18:53;;;;;;;18.25;11.30;;;11.80;99.90;;;;;;4959741;28;20069;-81
2022/07/04 03:21:19;;;;;;;15.27;11.05;;;11.80;99.90;;;;;;4951385;28;20518;-81
2022/07/04 03:23:57;;;;;;;19.33;12.20;;;11.90;99.90;;;;;;4944403;28;20046;-81
2022/07/04 03:26:27;;;;;;;13.68;10.40;;;11.90;99.90;;;;;;4959973;28;20039;-81
2022/07/04 03:28:53;;;;;;;18.52;11.77;;;11.80;99.90;;;;;;4938173;28;20050;-81
2022/07/04 03:31:19;;;;;;;13.43;10.25;;;11.80;99.90;;;;;;4944406;28;20043;-82
2022/07/04 03:33:45;;;;;;;16.23;10.57;;;11.80;99.90;;;;;;4943443;28;20046;-82
2022/07/04 03:36:11;;;;;;;15.98;10.77;;;11.90;99.90;;;;;;4943836;28;20548;-81
2022/07/04 03:38:36;;;;;;;12.93;10.52;;;11.90;99.90;;;;;;4960812;28;20107;-81
2022/07/04 03:41:02;;;;;;;13.25;9.73;;;11.80;99.90;;;;;;4943188;28;20467;-81
2022/07/04 03:43:28;;;;;;;12.55;9.32;;;11.90;99.90;;;;;;4944012;28;20053;-81
2022/07/04 03:45:54;;;;;;;14.55;10.90;;;11.90;99.90;;;;;;4941896;28;20037;-81
2022/07/04 03:48:20;;;;;;;14.32;10.90;;;12.00;99.90;;;;;;4943436;28;20043;-81
2022/07/04 03:50:46;;;;;;;13.75;10.35;;;12.00;99.90;;;;;;4942288;28;20037;-81
2022/07/04 03:53:12;;;;;;;17.70;11.70;;;12.10;99.90;;;;;;4957645;28;20121;-81
2022/07/04 03:55:39;;;;;;;15.27;10.07;;;12.20;99.90;;;;;;4957985;28;20228;-82
2022/07/04 03:58:05;;;;;;;17.60;11.45;;;12.20;99.90;;;;;;4958544;28;20205;-81
2022/07/04 04:00:31;;;;;;;16.23;11.32;;;12.30;99.90;;;;;;4941755;28;20054;-81
2022/07/04 04:02:57;;;;;;;14.50;10.00;;;12.30;99.90;;;;;;4941372;28;20113;-82
2022/07/04 04:05:27;;;;;;;14.20;10.45;;;12.40;99.90;;;;;;4956436;28;20038;-81
2022/07/04 04:07:57;;;;;;;14.63;11.07;;;12.50;99.90;;;;;;4958342;28;20402;-81
2022/07/04 04:10:24;;;;;;;14.15;10.65;;;12.60;99.90;;;;;;4958317;28;20038;-81
2022/07/04 04:12:50;;;;;;;16.15;10.88;;;12.60;99.90;;;;;;4940536;28;20035;-82
2022/07/04 04:15:15;;;;;;;13.05;10.98;;;12.70;99.90;;;;;;4942007;28;20131;-81
2022/07/04 04:17:41;;;;;;;15.52;11.43;;;12.70;99.90;;;;;;4955311;28;20137;-81
2022/07/04 04:20:08;;;;;;;14.07;10.57;;;12.80;99.90;;;;;;4941278;28;20047;-81
2022/07/04 04:22:37;;;;;;;15.27;10.00;;;12.90;99.90;;;;;;4942697;28;20337;-81
2022/07/04 04:25:03;;;;;;;12.68;10.02;;;13.00;99.90;;;;;;4956769;28;20047;-81
2022/07/04 04:27:29;;;;;;;13.57;9.50;;;13.10;99.90;;;;;;4956682;28;20034;-82
2022/07/04 04:29:54;;;;;;;12.10;9.40;;;13.30;99.90;;;;;;4940790;28;20677;-81
2022/07/04 04:32:21;;;;;;;13.15;9.45;;;13.30;99.90;;;;;;4957222;28;20121;-81
2022/07/04 04:34:47;;;;;;;10.52;8.10;;;13.50;99.90;;;;;;4940481;28;20039;-81
2022/07/04 04:37:16;;;;;;;12.98;9.07;;;13.60;99.90;;;;;;4940957;28;20043;-81
2022/07/04 04:39:42;;;;;;;11.43;8.23;;;13.70;99.90;;;;;;4971061;28;20387;-81
2022/07/04 04:42:08;;;;;;;14.48;8.93;;;13.90;99.90;;;;;;4940499;28;20039;-81
2022/07/04 04:44:33;;;;;;;11.32;8.45;;;13.90;99.90;;;;;;4972161;28;20066;-81
2022/07/04 04:46:59;;;;;;;11.57;8.70;;;14.00;99.90;;;;;;4955218;28;20026;-81
2022/07/04 04:49:25;;;;;;;11.10;8.50;;;14.00;99.90;;;;;;4955818;28;20506;-81
2022/07/04 04:51:50;;;;;;;12.85;9.35;;;14.20;83.70;;;;;;4941298;28;20033;-81
2022/07/04 04:54:16;;;;;;;12.00;9.02;;;14.20;50.80;;;;;;4940314;28;20038;-81
2022/07/04 04:56:42;;;;;;;13.65;8.60;;;14.30;48.70;;;;;;4941947;28;20058;-81
2022/07/04 04:59:09;;;;;;;10.80;8.32;;;14.40;1.00;;;;;;4940038;28;20568;-80
2022/07/04 05:01:35;;;;;;;9.75;8.48;;;14.30;1.00;;;;;;4958458;28;20046;-81
2022/07/04 05:04:01;;;;;;;10.90;8.45;;;14.40;1.00;;;;;;4939055;28;20549;-81
2022/07/04 05:06:31;;;;;;;10.73;8.38;;;14.40;1.00;;;;;;4938530;28;20051;-81
2022/07/04 05:08:57;;;;;;;10.30;8.70;;;14.40;1.00;;;;;;4939648;28;20389;-81
2022/07/04 05:11:23;;;;;;;10.13;8.10;;;14.50;1.00;;;;;;4941663;28;20478;-81
2022/07/04 05:13:48;;;;;;;14.05;8.10;;;14.60;1.00;;;;;;4949947;28;20490;-81
2022/07/04 05:16:14;;;;;;;12.25;8.60;;;14.70;1.00;;;;;;4939802;28;20562;-81
2022/07/04 05:18:40;;;;;;;10.60;8.10;;;14.90;1.00;;;;;;4939935;28;20398;-81
2022/07/04 05:21:05;;;;;;;11.15;7.68;;;15.00;1.00;;;;;;4940695;28;20046;-81
2022/07/04 05:23:31;;;;;;;10.65;8.13;;;15.00;1.00;;;;;;4952481;28;20070;-81
2022/07/04 05:25:56;;;;;;;11.13;7.70;;;15.10;1.00;;;;;;4939831;28;20051;-81
2022/07/04 05:28:22;;;;;;;10.68;7.85;;;15.10;99.90;;;;;;4953279;28;20398;-81
2022/07/04 05:30:54;;;;;;;9.93;7.60;;;15.20;99.90;;;;;;4971479;28;20046;-82
2022/07/04 05:33:19;;;;;;;11.93;7.63;;;15.30;99.90;;;;;;4952490;28;20105;-81
2022/07/04 05:35:45;;;;;;;12.48;7.60;;;15.40;99.90;;;;;;4941160;28;20057;-81
2022/07/04 05:38:11;;;;;;;12.02;7.65;;;15.50;99.90;;;;;;4941767;28;20045;-81
2022/07/04 05:40:37;;;;;;;11.10;7.85;;;15.60;99.90;;;;;;4940300;28;20380;-81
2022/07/04 05:43:02;;;;;;;10.90;7.10;;;15.70;99.90;;;;;;4956810;28;20051;-81
2022/07/04 05:45:31;;;;;;;9.77;6.88;;;15.80;99.90;;;;;;4941367;28;20375;-81
2022/07/04 05:47:57;;;;;;;13.80;7.47;;;15.80;99.90;;;;;;4950172;28;20109;-80
2022/07/04 05:50:23;;;;;;;10.18;7.57;;;15.90;99.90;;;;;;4940853;28;20110;-81
2022/07/04 05:52:48;;;;;;;9.13;6.63;;;15.90;99.90;;;;;;4941563;28;20066;-81
2022/07/04 05:55:14;;;;;;;11.95;7.60;;;16.10;99.90;;;;;;4955908;28;20555;-81
2022/07/04 05:57:40;;;;;;;12.48;7.38;;;16.20;99.90;;;;;;4940216;28;20054;-81
2022/07/04 06:00:06;;;;;;;9.43;6.97;;;16.30;99.90;;;;;;4955946;28;20493;-81
2022/07/04 06:02:32;;;;;;;10.38;6.75;;;16.30;99.90;;;;;;4939591;28;20411;-81
2022/07/04 06:04:58;;;;;;;9.18;6.57;;;16.30;99.90;;;;;;4955081;28;20043;-81
2022/07/04 06:07:24;;;;;;;9.82;6.60;;;16.40;99.90;;;;;;4939905;28;20474;-81
2022/07/04 06:09:49;;;;;;;10.63;6.97;;;16.40;99.90;;;;;;4955215;28;20038;-81
2022/07/04 06:12:15;;;;;;;10.00;6.13;;;16.50;99.90;;;;;;4938387;28;20134;-80
2022/07/04 06:14:41;;;;;;;9.13;6.25;;;16.40;99.90;;;;;;4955732;28;20038;-81
2022/07/04 06:17:06;;;;;;;8.27;6.18;;;16.50;99.90;;;;;;4953897;28;20312;-81
2022/07/04 06:19:32;;;;;;;10.90;6.07;;;16.60;99.90;;;;;;4938966;28;20431;-81
2022/07/04 06:21:58;;;;;;;8.40;5.78;;;16.70;99.90;;;;;;4939849;28;20134;-80
2022/07/04 06:24:23;;;;;;;7.35;5.93;;;16.80;99.90;;;;;;4939230;28;20043;-80
2022/07/04 06:26:49;;;;;;;9.10;6.00;;;16.80;99.90;;;;;;4939660;28;20483;-81
2022/07/04 06:29:15;;;;;;;7.55;5.70;;;16.90;99.90;;;;;;4941309;28;20478;-81
2022/07/04 06:31:41;;;;;;;9.73;6.05;;;17.00;99.90;;;;;;4939778;28;20035;-80
2022/07/04 06:36:51;;;;;;;8.13;5.37;;;17.00;85.50;;;;;;4968066;28;20078;-80
2022/07/04 06:39:16;;;;;;;7.35;5.95;;;17.00;99.90;;;;;;4941074;28;20031;-81
2022/07/04 06:41:42;;;;;;;10.23;5.55;;;17.10;99.90;;;;;;4940762;28;20297;-80
2022/07/04 06:44:11;;;;;;;10.40;5.07;;;17.30;99.90;;;;;;4938425;28;20446;-81
2022/07/04 06:46:37;;;;;;;7.82;5.57;;;17.40;99.90;;;;;;4936470;28;20124;-81
2022/07/04 06:49:03;;;;;;;10.98;5.13;;;17.50;99.90;;;;;;4954314;28;20092;-80
2022/07/04 06:51:28;;;;;;;9.68;5.38;;;17.50;99.90;;;;;;4939250;28;20043;-80
2022/07/04 06:53:54;;;;;;;8.27;5.10;;;17.70;99.90;;;;;;4937958;28;20046;-81
2022/07/04 06:56:19;;;;;;;8.20;5.80;;;17.70;99.90;;;;;;4938503;28;20109;-80
2022/07/04 06:58:45;;;;;;;9.90;4.90;;;17.70;99.90;;;;;;4954224;28;20176;-80
2022/07/04 07:01:13;;;;;;;8.38;4.63;;;17.80;99.90;;;;;;4954981;28;20070;-80
2022/07/04 07:03:39;;;;;;;8.85;4.82;;;17.90;99.90;;;;;;4953732;28;20112;-80
2022/07/04 07:06:05;;;;;;;9.45;5.13;;;18.10;99.90;;;;;;4944099;28;20038;-80
2022/07/04 07:08:30;;;;;;;11.13;5.10;;;18.10;99.90;;;;;;4944591;28;20038;-80
2022/07/04 07:10:58;;;;;;;8.30;4.30;;;18.30;23.80;;;;;;4958458;28;20050;-80
2022/07/04 07:13:23;;;;;;;8.35;4.82;;;18.90;99.90;;;;;;4942657;28;20387;-88
2022/07/04 07:15:49;;;;;;;9.15;4.47;;;19.10;3.40;;;;;;4941323;28;20274;-89
2022/07/04 07:18:16;;;;;;;9.10;4.97;;;18.90;20.10;;;;;;4941632;28;20045;-88
2022/07/04 07:20:42;;;;;;;9.05;4.53;;;18.80;1.00;;;;;;4942523;28;20030;-88
2022/07/04 07:23:07;;;;;;;12.98;4.00;;;19.40;27.30;;;;;;4959670;28;20046;-88
2022/07/04 07:25:33;;;;;;;9.57;4.20;;;19.40;11.60;;;;;;4953140;28;20117;-88
2022/07/04 07:27:59;;;;;;;8.60;3.88;;;19.60;1.00;;;;;;4937386;28;20038;-87
2022/07/04 07:30:25;;;;;;;7.95;3.70;;;19.20;1.00;;;;;;4938874;28;20565;-89
2022/07/04 07:32:51;;;;;;;7.97;3.45;;;19.50;1.00;;;;;;4942458;28;20039;-88
2022/07/04 07:35:16;;;;;;;8.38;3.53;;;19.70;99.90;;;;;;4942430;28;20038;-88
2022/07/04 07:37:42;;;;;;;9.20;3.90;;;20.00;1.00;;;;;;4956578;28;20074;-88
2022/07/04 07:40:08;;;;;;;10.02;3.70;;;19.70;99.90;;;;;;4957284;28;20057;-88
2022/07/04 07:42:34;;;;;;;7.88;3.85;;;19.40;1.00;;;;;;4958288;28;20051;-89
2022/07/04 07:45:00;;;;;;;10.38;4.10;;;19.10;1.00;;;;;;4958908;28;20478;-89
2022/07/04 07:47:26;;;;;;;8.98;3.67;;;19.00;99.90;;;;;;4942707;28;20034;-88
2022/07/04 07:49:52;;;;;;;5.88;3.33;;;19.10;1.00;;;;;;4939743;28;20463;-88
2022/07/04 07:52:17;;;;;;;6.35;3.20;;;19.30;1.00;;;;;;4942845;28;20066;-88
2022/07/04 07:54:43;;;;;;;10.68;3.53;;;19.60;1.00;;;;;;4942094;28;20126;-81
2022/07/04 07:57:09;;;;;;;7.50;3.00;;;20.00;99.90;;;;;;4958747;28;20057;-81
2022/07/04 07:59:35;;;;;;;6.65;2.88;;;20.10;99.90;;;;;;4941552;28;20051;-81
2022/07/04 08:02:01;;;;;;;5.85;2.75;;;20.30;99.90;;;;;;4957272;28;20109;-81
2022/07/04 08:04:36;;;;;;;9.55;2.95;;;20.70;99.90;;;;;;4945602;28;20053;-81
2022/07/04 08:07:07;;;;;;;5.47;2.88;;;20.30;99.90;;;;;;4954999;28;20118;-81
2022/07/04 08:09:34;;;;;;;4.65;2.30;;;20.30;99.90;;;;;;4953735;28;20470;-81
2022/07/04 08:12:03;;;;;;;4.53;2.28;;;20.50;99.90;;;;;;4952646;28;20042;-81
2022/07/04 08:14:29;;;;;;;6.30;2.80;;;20.10;99.90;;;;;;4957002;28;20043;-81
2022/07/04 08:16:57;;;;;;;6.40;2.42;;;20.20;99.90;;;;;;4939242;28;20062;-81
2022/07/04 08:19:24;;;;;;;6.70;2.40;;;20.60;99.90;;;;;;4948910;28;20467;-81
2022/07/04 08:21:54;;;;;;;6.88;2.47;;;21.00;99.90;;;;;;4956944;28;20043;-81
2022/07/04 08:24:20;;;;;;;8.43;2.30;;;20.40;99.90;;;;;;4955421;28;20482;-81
2022/07/04 08:26:47;;;;;;;6.60;2.45;;;20.90;99.90;;;;;;4954904;28;20624;-81
2022/07/04 08:29:13;;;;;;;7.80;2.40;;;20.70;99.90;;;;;;4938109;28;20035;-81
2022/07/04 08:31:39;;;;;;;3.92;2.35;;;20.80;99.90;;;;;;4956039;28;20043;-81
2022/07/04 08:34:05;;;;;;;5.28;2.22;;;20.70;99.90;;;;;;4955277;28;20479;-81
2022/07/04 08:36:30;;;;;;;7.70;2.50;;;20.80;99.90;;;;;;4937974;28;20169;-81
2022/07/04 08:38:56;;;;;;;3.55;2.03;;;20.60;99.90;;;;;;4940324;28;20082;-81
2022/07/04 08:41:22;;;;;;;3.83;1.92;;;20.50;99.90;;;;;;4940350;28;20057;-82
2022/07/04 08:43:48;;;;;;;7.45;2.20;;;20.00;99.90;;;;;;4957307;28;20244;-82
2022/07/04 08:46:16;;;;;;;5.20;1.92;;;19.90;99.90;;;;;;4943868;28;20042;-81
2022/07/04 08:48:48;;;;;;;4.90;2.55;;;19.70;99.90;;;;;;4940238;28;20114;-81
2022/07/04 08:51:20;;;;;;;5.90;2.50;;;20.00;99.90;;;;;;4942029;28;20477;-81
2022/07/04 08:53:55;;;;;;;7.35;2.38;;;20.40;99.90;;;;;;4955271;28;20554;-82
2022/07/04 08:59:07;;;;;;;5.82;2.15;;;20.30;99.90;;;;;;4955224;28;20038;-81
2022/07/04 09:01:34;;;;;;;3.20;1.92;;;20.10;99.90;;;;;;4942666;28;20034;-81
2022/07/04 09:04:04;;;;;;;6.30;2.20;;;19.80;99.90;;;;;;4925489;28;20051;-82
2022/07/04 09:06:31;;;;;;;7.85;2.08;;;19.90;99.90;;;;;;4936923;28;20073;-81
2022/07/04 09:08:57;;;;;;;5.05;1.80;;;19.90;99.90;;;;;;4932723;28;20073;-81
2022/07/04 09:11:23;;;;;;;5.50;2.05;;;20.20;99.90;;;;;;4933081;28;20065;-82
2022/07/04 09:13:49;;;;;;;3.00;1.95;;;20.50;99.90;;;;;;4933426;28;20043;-81
2022/07/04 09:16:15;;;;;;;3.45;1.88;;;20.60;99.90;;;;;;4933886;28;21350;-81
2022/07/04 09:18:40;;;;;;;5.10;1.70;;;20.40;99.90;;;;;;4934438;28;20074;-81
2022/07/04 09:21:08;;;;;;;5.95;2.15;;;20.20;99.90;;;;;;4934826;28;20375;-81
2022/07/04 09:23:39;;;;;;;3.95;1.92;;;19.70;99.90;;;;;;4951794;28;20781;-81
2022/07/04 09:26:13;;;;;;;3.05;1.55;;;19.40;99.90;;;;;;4934937;28;20042;-81
2022/07/04 09:28:41;;;;;;;2.40;1.40;;;19.40;99.90;;;;;;4945694;28;20082;-81
2022/07/04 09:31:17;;;;;;;2.42;1.55;;;19.20;99.90;;;;;;4971200;28;20350;-81
2022/07/04 09:33:47;;;;;;;2.70;1.60;;;19.30;99.90;;;;;;4938544;28;20285;-81
2022/07/04 09:36:14;;;;;;;3.05;1.60;;;19.50;99.90;;;;;;4953871;28;20531;-81
2022/07/04 09:38:40;;;;;;;3.08;1.60;;;19.70;90.40;;;;;;4949579;28;20042;-81
2022/07/04 09:44:02;;;;;;;4.60;1.83;;;19.60;99.90;;;;;;4944070;28;20413;-82
2022/07/04 09:46:28;;;;;;;3.28;1.52;;;19.90;99.90;;;;;;4947415;28;20485;-81
2022/07/04 09:48:54;;;;;;;3.97;1.80;;;20.90;92.50;;;;;;4932176;28;20043;-82
2022/07/04 09:51:37;;;;;;;3.42;1.95;;;20.40;44.00;;;;;;4932485;28;20550;-81
2022/07/04 09:54:25;;;;;;;8.13;2.83;;;20.20;70.50;;;;;;4954059;28;20035;-81
2022/07/04 09:56:54;;;;;;;3.22;1.60;;;20.00;99.90;;;;;;4949135;28;20141;-81
2022/07/04 09:59:21;;;;;;;2.47;1.50;;;20.10;89.80;;;;;;4935766;28;20047;-81
2022/07/04 10:01:47;;;;;;;2.92;1.67;;;20.20;96.70;;;;;;4933247;28;20127;-81
2022/07/04 10:04:13;;;;;;;7.47;1.70;;;20.20;99.90;;;;;;4936605;28;20327;-82
2022/07/04 10:06:44;;;;;;;4.22;1.75;;;20.20;99.90;;;;;;4954174;28;20423;-82
2022/07/04 10:09:18;;;;;;;3.92;1.70;;;20.00;61.10;;;;;;4950519;28;20039;-82
2022/07/04 10:11:46;;;;;;;3.42;1.52;;;20.60;27.40;;;;;;4936297;28;20486;-81
2022/07/04 10:14:12;;;;;;;2.58;1.50;;;20.30;18.80;;;;;;4969513;28;20385;-81
2022/07/04 10:16:40;;;;;;;3.13;1.40;;;20.30;17.40;;;;;;4970073;28;20045;-81
2022/07/04 10:19:07;;;;;;;3.75;1.60;;;20.60;28.80;;;;;;4951436;28;20095;-82
2022/07/04 10:21:34;;;;;;;4.57;1.95;;;20.60;28.70;;;;;;4933688;28;20051;-81
2022/07/04 10:24:00;;;;;;;3.03;1.80;;;20.20;29.40;;;;;;4938759;28;20035;-81
2022/07/04 10:26:29;;;;;;;3.65;1.70;;;20.60;21.50;;;;;;4969359;28;20043;-82
2022/07/04 10:28:55;;;;;;;7.25;1.60;;;20.40;40.50;;;;;;4939270;28;20474;-82
2022/07/04 10:31:23;;;;;;;4.75;1.77;;;20.60;57.30;;;;;;4936854;28;20049;-81
2022/07/04 10:33:49;;;;;;;2.08;1.40;;;20.70;1.00;;;;;;4938012;28;20528;-82
2022/07/04 10:36:27;;;;;;;2.85;1.70;;;21.10;67.20;;;;;;4936744;28;20077;-82
2022/07/04 10:38:59;;;;;;;3.35;1.88;;;21.60;1.00;;;;;;4955411;28;20053;-81
2022/07/04 10:41:26;;;;;;;2.50;1.52;;;21.60;13.60;;;;;;4959226;28;20252;-82
2022/07/04 10:44:00;;;;;;;3.92;1.98;;;21.80;1.00;;;;;;4942689;28;20046;-82
2022/07/04 10:46:36;;;;;;;3.92;1.35;;;21.90;1.00;;;;;;4944113;28;20288;-82
2022/07/04 10:49:19;;;;;;;4.20;1.50;;;22.10;1.00;;;;;;4957606;28;20097;-82
2022/07/04 10:51:48;;;;;;;2.97;1.40;;;22.30;1.00;;;;;;4960928;28;20418;-82
2022/07/04 10:54:18;;;;;;;4.72;1.63;;;22.20;1.00;;;;;;4943673;28;20050;-82
2022/07/04 10:56:44;;;;;;;3.25;1.67;;;22.20;1.00;;;;;;4957168;28;20380;-81
2022/07/04 10:59:18;;;;;;;2.60;1.70;;;22.30;1.00;;;;;;4941346;28;20129;-82
2022/07/04 11:02:13;;;;;;;4.38;2.13;;;21.40;1.00;;;;;;4959054;28;20738;-82
2022/07/04 11:04:57;;;;;;;3.22;1.90;;;21.00;1.00;;;;;;4954102;28;20078;-82
2022/07/04 11:07:43;;;;;;;3.90;1.70;;;20.80;1.00;;;;;;4949125;28;20288;-82
2022/07/04 11:10:16;;;;;;;2.38;1.70;;;20.70;1.00;;;;;;4960225;28;20043;-82
2022/07/04 11:12:53;;;;;;;2.22;1.77;;;20.60;6.90;;;;;;4951892;28;20035;-82
2022/07/04 11:15:28;;;;;;;2.58;1.70;;;21.10;1.00;;;;;;4953136;28;20458;-82
2022/07/04 11:18:04;;;;;;;2.05;1.60;;;21.90;1.00;;;;;;4959956;28;20079;-82
2022/07/04 11:20:31;;;;;;;2.40;1.33;;;22.40;1.00;;;;;;4953318;28;20383;-81
2022/07/04 11:23:24;;;;;;;4.28;1.40;;;22.50;1.00;;;;;;4945081;28;20256;-82
2022/07/04 11:25:52;;;;;;;3.25;1.33;;;22.80;1.00;;;;;;4938934;28;20065;-82
2022/07/04 11:28:25;;;;;;;2.75;1.08;;;23.20;1.00;;;;;;4953233;28;20130;-82
2022/07/04 11:30:55;;;;;;;5.50;1.40;;;21.80;1.00;;;;;;4957087;28;20031;-82
2022/07/04 11:33:24;;;;;;;2.47;1.30;;;20.90;1.00;;;;;;4943171;28;20135;-82
2022/07/04 11:36:17;;;;;;;3.47;1.15;;;20.40;1.00;;;;;;4943146;28;20038;-82
2022/07/04 11:38:47;;;;;;;3.40;1.50;;;20.50;1.00;;;;;;4934691;28;20035;-82
2022/07/04 11:46:49;;;;;;;3.35;1.40;;;22.40;1.00;;;;;;4969717;28;20032;-82
2022/07/04 11:49:17;;;;;;;3.88;1.35;;;22.50;1.00;;;;;;4922331;28;20023;-82
2022/07/04 11:51:47;;;;;;;2.90;1.20;;;22.20;1.00;;;;;;4958996;28;20117;-82
2022/07/04 11:54:13;;;;;;;3.58;1.45;;;22.30;1.00;;;;;;4957381;28;20384;-82
2022/07/04 11:56:39;;;;;;;2.28;1.23;;;21.80;1.00;;;;;;4943739;28;20102;-82
2022/07/04 11:59:15;;;;;;;2.85;1.20;;;21.60;1.00;;;;;;4943395;28;20049;-82
2022/07/04 12:01:43;;;;;;;2.72;1.10;;;21.70;1.00;;;;;;4947856;28;20770;-82
2022/07/04 12:04:19;;;;;;;1.48;1.00;;;21.70;1.00;;;;;;4962595;28;20039;-83
2022/07/04 12:06:47;;;;;;;3.88;1.38;;;22.20;1.00;;;;;;4947005;28;20038;-82
2022/07/04 12:09:16;;;;;;;3.65;1.02;;;22.00;1.00;;;;;;4947098;28;20038;-82
2022/07/04 12:11:59;;;;;;;1.98;1.10;;;21.90;1.00;;;;;;4947599;28;20530;-82
2022/07/04 12:14:27;;;;;;;5.03;1.40;;;20.90;1.00;;;;;;4963172;28;20514;-82
2022/07/04 12:17:10;;;;;;;3.05;1.30;;;21.60;1.00;;;;;;4946817;28;20101;-82
2022/07/04 12:19:37;;;;;;;2.05;1.20;;;21.30;1.00;;;;;;4960091;28;20047;-82
2022/07/04 12:22:03;;;;;;;1.48;1.08;;;21.40;1.00;;;;;;4945864;28;20121;-82
2022/07/04 12:24:40;;;;;;;2.22;1.10;;;22.10;1.00;;;;;;4946058;28;20207;-82
2022/07/04 12:27:05;;;;;;;2.40;1.00;;;22.40;1.00;;;;;;4945738;28;20042;-82
2022/07/04 12:29:31;;;;;;;2.83;1.13;;;22.70;1.00;;;;;;4943479;28;20094;-82
2022/07/04 12:31:57;;;;;;;4.45;1.08;;;22.50;1.00;;;;;;4961549;28;20039;-82
2022/07/04 12:34:23;;;;;;;3.05;1.05;;;22.70;1.00;;;;;;4945760;28;20126;-83
2022/07/04 12:36:53;;;;;;;2.83;1.08;;;22.80;1.00;;;;;;4945324;28;20902;-82
2022/07/04 12:39:33;;;;;;;3.15;1.30;;;22.70;1.00;;;;;;4945849;28;20595;-83
2022/07/04 12:42:17;;;;;;;1.75;0.95;;;22.70;1.00;;;;;;4945821;28;20046;-82
2022/07/04 12:44:45;;;;;;;2.30;1.00;;;22.70;1.00;;;;;;4957948;28;20526;-83
2022/07/04 12:47:12;;;;;;;4.28;1.30;;;22.70;1.00;;;;;;4946099;28;20046;-83
2022/07/04 12:49:44;;;;;;;2.40;1.08;;;22.50;1.00;;;;;;4945717;28;20073;-83
2022/07/04 12:52:15;;;;;;;2.35;1.35;;;22.80;1.00;;;;;;4943612;28;20067;-82
2022/07/04 12:54:42;;;;;;;2.60;0.95;;;21.90;1.00;;;;;;4961093;28;20122;-83
2022/07/04 12:57:19;;;;;;;4.60;1.25;;;21.50;1.00;;;;;;4944990;28;20051;-83
2022/07/04 12:59:44;;;;;;;3.53;1.20;;;21.70;1.00;;;;;;4961795;28;20060;-83
2022/07/04 13:02:14;;;;;;;2.67;1.15;;;21.60;1.00;;;;;;4943804;28;21094;-83
2022/07/04 13:04:40;;;;;;;2.60;1.20;;;21.90;1.00;;;;;;4960760;28;20042;-82